Time;durP1;ratioP1;P1;durP2;ratioP2;P2;SDS_P1;SDS_P2;PMS_P1;PMS_P2;Temp;Humidity;BMP_temperature;BMP_pressure;BME280_temperature;BME280_humidity;BME280_pressure;Samples;Min_cycle;Max_cycle;Signal;HPM_P1;HPM_P2
2023/06/17 00:02:07;;;;;;;2.90;2.70;;;22.80;75.90;;;;;;5001057;28;20161;-79
2023/06/17 00:04:33;;;;;;;2.80;2.70;;;22.80;76.00;;;;;;5002932;28;20400;-79
2023/06/17 00:07:00;;;;;;;2.75;2.65;;;22.80;75.90;;;;;;5002604;28;20061;-79
2023/06/17 00:09:26;;;;;;;3.25;3.05;;;22.80;75.90;;;;;;5000933;28;20045;-79
2023/06/17 00:11:52;;;;;;;2.83;2.72;;;22.80;76.00;;;;;;4999435;28;20107;-79
2023/06/17 00:14:20;;;;;;;3.00;2.90;;;22.80;76.00;;;;;;4998495;28;20054;-80
2023/06/17 00:16:46;;;;;;;2.95;2.85;;;22.80;75.90;;;;;;5002862;28;20050;-79
2023/06/17 00:19:15;;;;;;;3.25;2.95;;;22.80;76.00;;;;;;4990677;28;20408;-79
2023/06/17 00:21:52;;;;;;;2.88;2.75;;;22.80;75.90;;;;;;5008407;28;20451;-79
2023/06/17 00:24:18;;;;;;;2.65;2.55;;;22.80;75.90;;;;;;5008360;28;20049;-79
2023/06/17 00:26:44;;;;;;;3.08;2.97;;;22.80;76.60;;;;;;5007754;28;20486;-79
2023/06/17 00:29:09;;;;;;;2.78;2.67;;;22.80;76.60;;;;;;5003636;28;20129;-79
2023/06/17 00:31:35;;;;;;;2.70;2.60;;;22.80;75.80;;;;;;5005742;28;20038;-79
2023/06/17 00:34:00;;;;;;;3.17;2.90;;;22.80;75.70;;;;;;5007728;28;20061;-79
2023/06/17 00:36:26;;;;;;;3.10;3.00;;;22.80;75.70;;;;;;5004819;28;20420;-79
2023/06/17 00:38:52;;;;;;;2.90;2.80;;;22.80;75.70;;;;;;5007701;28;20073;-79
2023/06/17 00:41:18;;;;;;;3.15;3.05;;;22.80;75.70;;;;;;5007974;28;20415;-79
2023/06/17 00:43:44;;;;;;;3.10;3.00;;;22.80;75.60;;;;;;5007094;28;20034;-79
2023/06/17 00:46:22;;;;;;;3.33;3.13;;;22.80;75.70;;;;;;5004577;28;20052;-79
2023/06/17 00:48:48;;;;;;;2.80;2.70;;;22.80;75.70;;;;;;5026690;28;20538;-79
2023/06/17 00:51:13;;;;;;;3.00;2.90;;;22.80;75.60;;;;;;5005444;28;20050;-79
2023/06/17 00:53:39;;;;;;;3.20;3.10;;;22.70;75.60;;;;;;5011905;28;20034;-79
2023/06/17 00:56:04;;;;;;;2.75;2.65;;;22.80;75.60;;;;;;5002540;28;20568;-79
2023/06/17 00:58:30;;;;;;;3.05;2.95;;;22.80;75.60;;;;;;5004518;28;20065;-79
2023/06/17 01:00:56;;;;;;;2.60;2.50;;;22.70;75.50;;;;;;5004351;28;20045;-78
2023/06/17 01:03:22;;;;;;;3.08;2.88;;;22.70;75.50;;;;;;5008452;28;20037;-79
2023/06/17 01:05:49;;;;;;;2.88;2.78;;;22.80;75.60;;;;;;5008608;28;20046;-79
2023/06/17 01:08:28;;;;;;;2.72;2.63;;;22.70;75.50;;;;;;5006572;28;20049;-79
2023/06/17 01:11:20;;;;;;;2.78;2.67;;;22.70;75.50;;;;;;5002716;28;20069;-79
2023/06/17 01:13:46;;;;;;;2.80;2.70;;;22.70;75.50;;;;;;5004184;28;20069;-79
2023/06/17 01:16:12;;;;;;;2.67;2.58;;;22.70;75.60;;;;;;5003860;28;20038;-79
2023/06/17 01:18:40;;;;;;;2.70;2.60;;;22.70;75.60;;;;;;5005577;28;20049;-79
2023/06/17 01:21:06;;;;;;;2.75;2.65;;;22.70;75.50;;;;;;5007406;28;20507;-79
2023/06/17 01:23:37;;;;;;;2.63;2.53;;;22.70;75.50;;;;;;5005051;28;20052;-79
2023/06/17 01:26:02;;;;;;;2.90;2.80;;;22.70;75.50;;;;;;5014592;28;20125;-79
2023/06/17 01:28:29;;;;;;;2.75;2.65;;;22.70;75.40;;;;;;5002692;28;20607;-80
2023/06/17 01:30:55;;;;;;;3.00;2.90;;;22.70;75.40;;;;;;5002915;28;20045;-79
2023/06/17 01:33:21;;;;;;;2.88;2.78;;;22.70;75.40;;;;;;4988607;28;20081;-79
2023/06/17 01:36:03;;;;;;;2.95;2.85;;;22.70;75.40;;;;;;5025131;28;20029;-80
2023/06/17 01:38:33;;;;;;;2.78;2.67;;;22.70;75.40;;;;;;5007226;28;20050;-80
2023/06/17 01:41:02;;;;;;;3.67;2.75;;;22.70;75.40;;;;;;5005688;28;20507;-80
2023/06/17 01:43:30;;;;;;;2.75;2.60;;;22.70;75.40;;;;;;4987592;28;20103;-79
2023/06/17 01:45:56;;;;;;;2.55;2.45;;;22.70;75.40;;;;;;5007531;28;20030;-79
2023/06/17 01:48:22;;;;;;;2.70;2.60;;;22.70;75.40;;;;;;5005852;28;20538;-79
2023/06/17 01:50:47;;;;;;;2.58;2.47;;;22.70;75.40;;;;;;5008740;28;20046;-79
2023/06/17 01:53:13;;;;;;;2.40;2.30;;;22.70;75.50;;;;;;4989035;28;20045;-79
2023/06/17 01:55:38;;;;;;;2.72;2.63;;;22.70;75.40;;;;;;5003752;28;20038;-79
2023/06/17 01:58:04;;;;;;;2.38;2.28;;;22.70;75.40;;;;;;5003324;28;20054;-79
2023/06/17 02:00:30;;;;;;;2.35;2.25;;;22.70;75.40;;;;;;5003943;28;20083;-79
2023/06/17 02:02:55;;;;;;;2.70;2.60;;;22.70;75.40;;;;;;5023921;28;20526;-79
2023/06/17 02:05:21;;;;;;;3.45;3.25;;;22.70;75.50;;;;;;5003715;28;20064;-79
2023/06/17 02:07:47;;;;;;;2.42;2.33;;;22.70;75.40;;;;;;5002049;28;20124;-79
2023/06/17 02:10:13;;;;;;;2.65;2.55;;;22.70;75.50;;;;;;5004875;28;20192;-79
2023/06/17 02:12:38;;;;;;;2.35;2.25;;;22.70;75.40;;;;;;5015017;28;20125;-79
2023/06/17 02:15:04;;;;;;;2.78;2.67;;;22.70;75.40;;;;;;5018990;28;20046;-79
2023/06/17 02:17:30;;;;;;;2.75;2.65;;;22.70;75.40;;;;;;5020802;28;20141;-80
2023/06/17 02:19:55;;;;;;;2.53;2.42;;;22.70;75.40;;;;;;5003554;28;20141;-79
2023/06/17 02:22:21;;;;;;;2.50;2.40;;;22.70;75.40;;;;;;5002313;28;20507;-79
2023/06/17 02:24:47;;;;;;;3.10;3.00;;;22.70;75.40;;;;;;5003285;28;20140;-79
2023/06/17 02:27:12;;;;;;;2.80;2.67;;;22.70;75.40;;;;;;5004918;28;20045;-79
2023/06/17 02:29:38;;;;;;;2.58;2.47;;;22.70;75.40;;;;;;5003394;28;20049;-79
2023/06/17 02:32:04;;;;;;;2.50;2.40;;;22.70;75.40;;;;;;5000262;28;20469;-79
2023/06/17 02:34:33;;;;;;;2.40;2.30;;;22.70;75.50;;;;;;5000082;28;20042;-79
2023/06/17 02:36:58;;;;;;;2.60;2.50;;;22.70;75.70;;;;;;5000368;28;20129;-79
2023/06/17 02:39:24;;;;;;;2.95;2.72;;;22.70;75.70;;;;;;5015016;28;20050;-79
2023/06/17 02:41:49;;;;;;;2.40;2.30;;;22.70;75.70;;;;;;5003604;28;20076;-79
2023/06/17 02:44:15;;;;;;;2.40;2.30;;;22.70;75.70;;;;;;5002403;28;20042;-79
2023/06/17 02:46:40;;;;;;;2.72;2.63;;;22.60;76.40;;;;;;5003744;28;20091;-79
2023/06/17 02:49:06;;;;;;;2.67;2.58;;;22.70;75.70;;;;;;5003560;28;20127;-79
2023/06/17 02:51:32;;;;;;;2.80;2.70;;;22.70;75.70;;;;;;5016435;28;20121;-79
2023/06/17 02:53:57;;;;;;;2.45;2.33;;;22.70;75.70;;;;;;5020328;28;20040;-79
2023/06/17 02:56:23;;;;;;;2.80;2.70;;;22.70;75.70;;;;;;5002449;28;20188;-79
2023/06/17 02:58:49;;;;;;;2.90;2.80;;;22.70;75.70;;;;;;4985633;28;20507;-79
2023/06/17 03:01:16;;;;;;;3.10;3.00;;;22.70;75.70;;;;;;5002773;28;20038;-79
2023/06/17 03:03:41;;;;;;;2.88;2.78;;;22.70;75.70;;;;;;5007360;28;20046;-79
2023/06/17 03:06:07;;;;;;;2.70;2.60;;;22.70;75.70;;;;;;5004477;28;20084;-79
2023/06/17 03:08:34;;;;;;;2.50;2.40;;;22.70;75.70;;;;;;4999796;28;20034;-79
2023/06/17 03:11:00;;;;;;;2.50;2.30;;;22.70;75.70;;;;;;4998907;28;20049;-79
2023/06/17 03:13:26;;;;;;;2.53;2.42;;;22.70;75.80;;;;;;5002999;28;20046;-79
2023/06/17 03:15:53;;;;;;;2.80;2.70;;;22.70;75.70;;;;;;5003080;28;20050;-79
2023/06/17 03:18:21;;;;;;;2.78;2.67;;;22.60;75.60;;;;;;5001003;28;20044;-79
2023/06/17 03:20:46;;;;;;;2.58;2.47;;;22.70;75.60;;;;;;5004977;28;20044;-79
2023/06/17 03:23:12;;;;;;;2.60;2.50;;;22.60;75.50;;;;;;5001033;28;20041;-79
2023/06/17 03:25:38;;;;;;;3.00;2.90;;;22.60;75.50;;;;;;5004087;28;20037;-79
2023/06/17 03:28:04;;;;;;;3.40;2.80;;;22.70;75.60;;;;;;5002916;28;20089;-79
2023/06/17 03:30:29;;;;;;;2.58;2.47;;;22.70;75.60;;;;;;5004582;28;20083;-79
2023/06/17 03:32:57;;;;;;;2.38;2.28;;;22.60;75.50;;;;;;5007239;28;20041;-79
2023/06/17 03:35:23;;;;;;;2.65;2.55;;;22.60;75.50;;;;;;5004956;28;20119;-79
2023/06/17 03:37:49;;;;;;;2.40;2.30;;;22.60;75.40;;;;;;5004470;28;20046;-79
2023/06/17 03:40:15;;;;;;;2.20;2.10;;;22.70;75.40;;;;;;5002715;28;20045;-79
2023/06/17 03:42:40;;;;;;;2.85;2.75;;;22.60;75.40;;;;;;5004380;28;20532;-79
2023/06/17 03:45:06;;;;;;;2.85;2.75;;;22.60;75.40;;;;;;5005813;28;20062;-79
2023/06/17 03:47:32;;;;;;;2.78;2.67;;;22.60;75.40;;;;;;5004809;28;20139;-79
2023/06/17 03:49:58;;;;;;;2.72;2.63;;;22.60;75.40;;;;;;5003316;28;20136;-79
2023/06/17 03:52:23;;;;;;;2.67;2.58;;;22.60;75.40;;;;;;5009474;28;20042;-79
2023/06/17 03:54:49;;;;;;;2.72;2.63;;;22.60;75.40;;;;;;5004024;28;20121;-79
2023/06/17 03:57:15;;;;;;;2.50;2.40;;;22.60;75.40;;;;;;4985496;28;20034;-79
2023/06/17 03:59:41;;;;;;;2.60;2.50;;;22.60;75.40;;;;;;5007073;28;20038;-79
2023/06/17 04:02:07;;;;;;;2.70;2.60;;;22.60;75.40;;;;;;5005796;28;20513;-79
2023/06/17 04:04:34;;;;;;;2.60;2.50;;;22.60;75.40;;;;;;5001313;28;20041;-79
2023/06/17 04:07:00;;;;;;;2.65;2.55;;;22.60;75.40;;;;;;5005527;28;20111;-79
2023/06/17 04:09:25;;;;;;;2.60;2.50;;;22.60;75.40;;;;;;5001385;28;20589;-79
2023/06/17 04:11:51;;;;;;;2.67;2.58;;;22.60;75.30;;;;;;5010486;28;20057;-79
2023/06/17 04:14:17;;;;;;;2.60;2.50;;;22.60;75.40;;;;;;5005456;28;20080;-79
2023/06/17 04:16:43;;;;;;;2.70;2.60;;;22.60;75.40;;;;;;5006594;28;20046;-79
2023/06/17 04:19:09;;;;;;;2.50;2.40;;;22.60;75.30;;;;;;5018704;28;20060;-79
2023/06/17 04:21:35;;;;;;;2.92;2.83;;;22.60;75.30;;;;;;5008249;28;20064;-80
2023/06/17 04:24:01;;;;;;;2.75;2.65;;;22.60;75.20;;;;;;5003187;28;20141;-79
2023/06/17 04:26:28;;;;;;;2.80;2.70;;;22.60;75.30;;;;;;5003602;28;20107;-79
2023/06/17 04:28:53;;;;;;;2.80;2.70;;;22.60;75.20;;;;;;4998971;28;20046;-80
2023/06/17 04:31:19;;;;;;;3.40;3.20;;;22.60;76.00;;;;;;5004165;28;20486;-79
2023/06/17 04:33:46;;;;;;;3.05;2.53;;;22.60;75.20;;;;;;5008156;28;20029;-79
2023/06/17 04:36:14;;;;;;;2.63;2.53;;;22.60;75.20;;;;;;5022134;28;20517;-79
2023/06/17 04:38:39;;;;;;;2.47;2.22;;;22.60;75.20;;;;;;5010928;28;20034;-80
2023/06/17 04:41:05;;;;;;;2.63;2.53;;;22.60;75.10;;;;;;5010637;28;20038;-79
2023/06/17 04:43:34;;;;;;;2.55;2.45;;;22.60;75.10;;;;;;5008073;28;20053;-79
2023/06/17 04:46:01;;;;;;;2.55;2.45;;;22.60;75.10;;;;;;5008129;28;20044;-79
2023/06/17 04:48:28;;;;;;;2.60;2.50;;;22.60;75.10;;;;;;5010069;28;20526;-79
2023/06/17 04:50:55;;;;;;;2.55;2.45;;;22.70;75.10;;;;;;5010378;28;20060;-79
2023/06/17 04:53:21;;;;;;;2.80;2.70;;;22.60;75.10;;;;;;5005269;28;20080;-79
2023/06/17 04:55:47;;;;;;;2.83;2.72;;;22.60;75.00;;;;;;5005694;28;20492;-79
2023/06/17 04:58:12;;;;;;;2.63;2.53;;;22.60;75.00;;;;;;5010399;28;20044;-79
2023/06/17 05:00:38;;;;;;;2.78;2.67;;;22.60;75.00;;;;;;5007122;28;20505;-79
2023/06/17 05:03:03;;;;;;;2.25;2.15;;;22.60;75.00;;;;;;5009529;28;20045;-79
2023/06/17 05:05:29;;;;;;;2.35;2.25;;;22.60;75.00;;;;;;5006193;28;20034;-79
2023/06/17 05:07:55;;;;;;;2.17;2.08;;;22.60;75.00;;;;;;5006230;28;20117;-79
2023/06/17 05:10:20;;;;;;;2.65;2.55;;;22.60;74.90;;;;;;5006282;28;20073;-79
2023/06/17 05:12:46;;;;;;;2.72;2.63;;;22.60;74.90;;;;;;5003802;28;20074;-79
2023/06/17 05:15:11;;;;;;;2.50;2.40;;;22.70;75.00;;;;;;5007145;28;20084;-79
2023/06/17 05:17:37;;;;;;;2.42;2.33;;;22.60;75.00;;;;;;5008444;28;20519;-79
2023/06/17 05:20:04;;;;;;;2.92;2.83;;;22.60;74.90;;;;;;5005177;28;20734;-79
2023/06/17 05:22:29;;;;;;;2.63;2.53;;;22.60;74.90;;;;;;5003664;28;20041;-79
2023/06/17 05:24:55;;;;;;;2.25;2.15;;;22.60;74.90;;;;;;5004915;28;20041;-79
2023/06/17 05:27:20;;;;;;;2.63;2.53;;;22.60;74.90;;;;;;5007973;28;20513;-79
2023/06/17 05:29:46;;;;;;;2.38;2.28;;;22.60;75.00;;;;;;5007901;28;20564;-79
2023/06/17 05:32:11;;;;;;;2.28;2.17;;;22.60;74.90;;;;;;5001112;28;20046;-80
2023/06/17 05:34:37;;;;;;;4.03;3.83;;;22.60;74.90;;;;;;4998091;28;20065;-77
2023/06/17 05:37:03;;;;;;;7.13;6.53;;;22.60;73.50;;;;;;5002485;28;20103;-79
2023/06/17 05:39:28;;;;;;;7.30;6.80;;;22.10;74.80;;;;;;5001978;28;20054;-79
2023/06/17 05:41:54;;;;;;;7.32;6.93;;;21.70;75.80;;;;;;5002696;28;20085;-79
2023/06/17 05:44:19;;;;;;;7.72;7.22;;;21.70;75.90;;;;;;5001099;28;20543;-79
2023/06/17 05:46:45;;;;;;;8.57;8.00;;;21.50;77.30;;;;;;5003480;28;20050;-79
2023/06/17 05:49:10;;;;;;;7.90;7.22;;;21.20;77.90;;;;;;5004784;28;20515;-78
2023/06/17 05:51:36;;;;;;;7.15;6.55;;;21.20;78.90;;;;;;5007579;28;20590;-79
2023/06/17 05:54:02;;;;;;;8.23;7.53;;;21.10;78.70;;;;;;5005666;28;20038;-79
2023/06/17 05:56:27;;;;;;;9.23;8.07;;;21.20;78.40;;;;;;5000306;28;20057;-78
2023/06/17 05:58:53;;;;;;;8.75;8.02;;;21.20;79.20;;;;;;5016511;28;20050;-79
2023/06/17 06:01:18;;;;;;;8.65;8.07;;;21.20;78.60;;;;;;5000088;28;20042;-79
2023/06/17 06:03:44;;;;;;;9.30;8.50;;;21.20;78.80;;;;;;5004384;28;20404;-79
2023/06/17 06:06:10;;;;;;;8.93;8.18;;;21.30;78.30;;;;;;5007568;28;20050;-79
2023/06/17 06:08:35;;;;;;;8.25;7.75;;;21.30;78.60;;;;;;5005886;28;20508;-79
2023/06/17 06:11:01;;;;;;;8.35;7.63;;;21.10;79.10;;;;;;5002657;28;20046;-79
2023/06/17 06:13:28;;;;;;;8.57;7.97;;;21.10;79.50;;;;;;5001812;28;20050;-79
2023/06/17 06:15:54;;;;;;;8.90;8.20;;;21.10;79.80;;;;;;5003880;28;20221;-79
2023/06/17 06:18:20;;;;;;;8.40;7.80;;;21.10;79.60;;;;;;5001788;28;20404;-78
2023/06/17 06:20:45;;;;;;;9.65;8.80;;;21.10;79.90;;;;;;5005838;28;20630;-79
2023/06/17 06:23:11;;;;;;;9.27;8.57;;;21.00;80.20;;;;;;4997691;28;20042;-79
2023/06/17 06:25:37;;;;;;;8.68;8.02;;;21.00;80.50;;;;;;4998685;28;20133;-79
2023/06/17 06:28:03;;;;;;;9.63;8.93;;;21.10;79.80;;;;;;5005261;28;20045;-78
2023/06/17 06:30:29;;;;;;;8.70;8.10;;;21.20;80.50;;;;;;5015598;28;20064;-78
2023/06/17 06:32:55;;;;;;;8.43;7.82;;;21.10;81.20;;;;;;5019198;28;20048;-78
2023/06/17 06:35:21;;;;;;;8.75;8.15;;;21.00;81.60;;;;;;5005180;28;20046;-78
2023/06/17 06:37:46;;;;;;;9.52;8.80;;;21.00;83.00;;;;;;5003182;28;20072;-78
2023/06/17 06:40:12;;;;;;;8.75;7.95;;;21.00;83.60;;;;;;5005229;28;20041;-78
2023/06/17 06:42:38;;;;;;;8.63;7.82;;;21.00;84.10;;;;;;5003444;28;20050;-78
2023/06/17 06:45:04;;;;;;;8.35;7.80;;;21.00;84.80;;;;;;5000767;28;20042;-78
2023/06/17 06:47:30;;;;;;;9.07;8.30;;;21.00;84.50;;;;;;5000228;28;20041;-80
2023/06/17 06:49:55;;;;;;;9.60;8.68;;;21.20;83.90;;;;;;5000717;28;20434;-80
2023/06/17 06:52:21;;;;;;;8.85;8.30;;;21.10;83.80;;;;;;5000047;28;20065;-79
2023/06/17 06:54:46;;;;;;;9.30;8.70;;;21.20;83.80;;;;;;5005229;28;20415;-80
2023/06/17 06:57:12;;;;;;;8.73;8.23;;;21.10;84.90;;;;;;5002695;28;20061;-80
2023/06/17 06:59:37;;;;;;;8.80;8.20;;;21.00;85.20;;;;;;5000511;28;20063;-79
2023/06/17 07:02:03;;;;;;;9.85;9.00;;;20.90;85.40;;;;;;5016583;28;20069;-80
2023/06/17 07:04:29;;;;;;;9.20;8.65;;;20.90;84.90;;;;;;5015971;28;20462;-79
2023/06/17 07:06:54;;;;;;;9.55;8.88;;;21.00;85.00;;;;;;5003174;28;20046;-79
2023/06/17 07:09:20;;;;;;;9.95;9.13;;;21.10;85.60;;;;;;5001066;28;20046;-79
2023/06/17 07:11:46;;;;;;;10.48;9.57;;;21.10;85.50;;;;;;4986208;28;20393;-80
2023/06/17 07:14:12;;;;;;;9.57;8.88;;;21.10;85.10;;;;;;4999247;28;20108;-80
2023/06/17 07:16:37;;;;;;;10.40;9.60;;;21.00;85.30;;;;;;5009328;28;20053;-79
2023/06/17 07:19:03;;;;;;;9.45;8.65;;;21.10;85.70;;;;;;5002102;28;20052;-80
2023/06/17 07:21:28;;;;;;;9.63;8.93;;;21.20;84.70;;;;;;4999986;28;20578;-80
2023/06/17 07:23:54;;;;;;;9.25;8.55;;;21.30;85.30;;;;;;5003621;28;20057;-80
2023/06/17 07:26:20;;;;;;;9.02;8.52;;;21.30;84.60;;;;;;4995952;28;20520;-78
2023/06/17 07:28:45;;;;;;;10.68;9.77;;;21.30;84.40;;;;;;5000451;28;20127;-78
2023/06/17 07:31:12;;;;;;;9.45;8.70;;;21.30;83.60;;;;;;4997344;28;20064;-79
2023/06/17 07:33:39;;;;;;;10.27;9.38;;;21.30;84.00;;;;;;4998223;28;20042;-80
2023/06/17 07:36:05;;;;;;;9.48;8.73;;;21.30;83.20;;;;;;5013156;28;20117;-79
2023/06/17 07:38:32;;;;;;;10.77;9.75;;;21.30;83.20;;;;;;4998146;28;20125;-80
2023/06/17 07:40:59;;;;;;;10.18;9.15;;;21.30;82.50;;;;;;5001376;28;20096;-80
2023/06/17 07:43:25;;;;;;;9.82;9.00;;;21.40;82.40;;;;;;4998600;28;20058;-75
2023/06/17 07:45:50;;;;;;;9.00;8.30;;;21.50;82.00;;;;;;5006898;28;20160;-75
2023/06/17 07:48:16;;;;;;;9.13;8.43;;;21.60;81.70;;;;;;5007042;28;20530;-74
2023/06/17 07:50:42;;;;;;;9.23;8.52;;;21.60;81.60;;;;;;5008130;28;20085;-74
2023/06/17 07:53:08;;;;;;;8.35;7.85;;;21.70;81.40;;;;;;5005248;28;20070;-78
2023/06/17 07:55:33;;;;;;;8.40;7.82;;;21.80;80.80;;;;;;5005973;28;20034;-76
2023/06/17 07:57:59;;;;;;;9.07;8.25;;;21.90;81.30;;;;;;5005189;28;20516;-74
2023/06/17 08:00:26;;;;;;;8.20;7.60;;;21.90;81.60;;;;;;4988128;28;20046;-74
2023/06/17 08:02:52;;;;;;;8.40;7.88;;;21.90;80.50;;;;;;4996053;28;20077;-73
2023/06/17 08:05:17;;;;;;;7.93;7.38;;;21.90;80.70;;;;;;5004820;28;20046;-74
2023/06/17 08:07:43;;;;;;;7.93;7.43;;;21.90;80.70;;;;;;5008698;28;20068;-75
2023/06/17 08:10:08;;;;;;;7.43;6.88;;;21.90;80.70;;;;;;5005839;28;20041;-73
2023/06/17 08:12:34;;;;;;;7.30;6.82;;;21.90;80.30;;;;;;5000620;28;20805;-73
2023/06/17 08:15:00;;;;;;;7.13;6.70;;;22.00;80.30;;;;;;5005719;28;20061;-74
2023/06/17 08:17:25;;;;;;;8.05;7.47;;;22.00;80.40;;;;;;4654134;28;9999807;-76
2023/06/17 08:19:51;;;;;;;6.50;6.10;;;22.10;80.30;;;;;;4996288;28;20056;-76
2023/06/17 08:22:16;;;;;;;7.10;6.43;;;22.10;80.00;;;;;;5002755;28;20041;-76
2023/06/17 08:24:43;;;;;;;7.35;6.82;;;22.10;79.80;;;;;;5016555;28;20046;-74
2023/06/17 08:27:09;;;;;;;6.55;6.10;;;22.10;79.80;;;;;;5006468;28;20111;-77
2023/06/17 08:29:35;;;;;;;6.70;6.30;;;22.20;79.80;;;;;;5011709;28;20041;-77
2023/06/17 08:32:01;;;;;;;8.15;7.60;;;22.10;79.80;;;;;;5002023;28;20041;-75
2023/06/17 08:34:30;;;;;;;7.13;6.72;;;22.20;79.80;;;;;;4998768;28;20065;-75
2023/06/17 08:36:56;;;;;;;6.00;5.70;;;22.20;79.80;;;;;;5000162;28;20516;-76
2023/06/17 08:39:22;;;;;;;6.25;5.85;;;22.20;79.70;;;;;;5000924;28;20492;-76
2023/06/17 08:41:47;;;;;;;6.97;6.47;;;22.20;79.70;;;;;;5003636;28;20065;-75
2023/06/17 08:44:13;;;;;;;6.35;5.97;;;22.20;79.70;;;;;;4985999;28;20119;-75
2023/06/17 08:46:40;;;;;;;6.30;5.80;;;22.20;79.60;;;;;;5001827;28;20042;-76
2023/06/17 08:49:07;;;;;;;6.13;5.72;;;22.20;79.60;;;;;;4984291;28;20558;-76
2023/06/17 08:51:33;;;;;;;5.38;5.07;;;22.30;79.50;;;;;;5013582;28;20046;-77
2023/06/17 08:53:58;;;;;;;8.25;5.63;;;22.30;79.50;;;;;;5002767;28;20483;-75
2023/06/17 08:56:24;;;;;;;6.53;6.00;;;22.30;79.80;;;;;;5002751;28;20522;-74
2023/06/17 08:58:50;;;;;;;6.50;6.00;;;22.30;79.70;;;;;;4989466;28;20049;-74
2023/06/17 09:01:16;;;;;;;5.68;5.38;;;22.30;79.40;;;;;;5000425;28;20621;-75
2023/06/17 09:03:42;;;;;;;6.63;6.10;;;22.30;79.30;;;;;;5000777;28;20056;-75
2023/06/17 09:06:23;;;;;;;6.22;5.82;;;22.30;79.10;;;;;;5001916;28;20564;-75
2023/06/17 09:08:50;;;;;;;5.85;5.45;;;22.40;79.10;;;;;;5020405;28;20539;-75
2023/06/17 09:11:16;;;;;;;5.28;5.00;;;22.40;78.90;;;;;;5004530;28;20061;-75
2023/06/17 09:13:42;;;;;;;5.22;4.93;;;22.40;78.80;;;;;;5004335;28;20507;-75
2023/06/17 09:16:08;;;;;;;5.38;4.97;;;22.40;78.80;;;;;;5004545;28;20034;-75
2023/06/17 09:18:36;;;;;;;5.18;4.88;;;22.40;78.60;;;;;;5001236;28;20046;-74
2023/06/17 09:21:02;;;;;;;5.63;5.32;;;22.40;78.50;;;;;;5023949;28;20038;-74
2023/06/17 09:23:28;;;;;;;5.35;5.05;;;22.40;78.90;;;;;;5003498;28;20030;-75
2023/06/17 09:26:03;;;;;;;5.63;5.22;;;22.50;79.90;;;;;;5004054;28;20037;-77
2023/06/17 09:28:32;;;;;;;5.25;4.85;;;22.50;80.20;;;;;;4996858;28;20124;-77
2023/06/17 09:30:59;;;;;;;5.40;4.90;;;22.50;80.60;;;;;;5005095;28;20088;-79
2023/06/17 09:33:25;;;;;;;4.90;4.60;;;22.50;82.10;;;;;;5000819;28;20047;-79
2023/06/17 09:36:04;;;;;;;5.50;5.20;;;22.60;81.80;;;;;;5000584;28;20687;-78
2023/06/17 09:38:30;;;;;;;5.50;5.25;;;22.50;80.80;;;;;;5002490;28;20174;-82
2023/06/17 09:40:57;;;;;;;5.20;4.75;;;22.50;79.90;;;;;;5003813;28;20132;-79
2023/06/17 09:43:25;;;;;;;5.53;5.07;;;22.60;79.20;;;;;;4999942;28;20050;-79
2023/06/17 09:46:03;;;;;;;5.20;4.93;;;22.60;79.00;;;;;;4992856;28;20034;-80
2023/06/17 09:48:37;;;;;;;4.97;4.68;;;22.60;79.00;;;;;;4999832;28;20046;-78
2023/06/17 09:51:05;;;;;;;4.57;4.28;;;22.50;78.90;;;;;;5013957;28;20069;-76
2023/06/17 09:53:31;;;;;;;4.63;4.43;;;22.60;78.90;;;;;;4999423;28;20069;-79
2023/06/17 09:55:57;;;;;;;6.25;5.65;;;22.60;79.80;;;;;;5017860;28;20033;-77
2023/06/17 09:58:30;;;;;;;5.10;4.70;;;22.60;80.90;;;;;;5001159;28;20061;-78
2023/06/17 10:01:00;;;;;;;5.30;4.83;;;22.70;80.90;;;;;;4985791;28;20483;-77
2023/06/17 10:03:29;;;;;;;5.72;5.38;;;22.70;81.50;;;;;;5005354;28;20311;-77
2023/06/17 10:06:03;;;;;;;5.50;5.10;;;22.70;81.90;;;;;;5020001;28;20107;-77
2023/06/17 10:08:29;;;;;;;5.25;4.85;;;22.70;81.30;;;;;;5003522;28;20068;-78
2023/06/17 10:10:56;;;;;;;6.15;5.20;;;22.70;81.80;;;;;;5002049;28;20072;-78
2023/06/17 10:13:21;;;;;;;5.07;4.75;;;22.70;80.50;;;;;;5003871;28;20049;-79
2023/06/17 10:15:47;;;;;;;5.03;4.68;;;22.70;79.80;;;;;;5003276;28;20046;-78
2023/06/17 10:18:13;;;;;;;5.35;5.00;;;22.70;79.30;;;;;;5001172;28;20046;-78
2023/06/17 10:20:38;;;;;;;5.05;4.75;;;22.70;79.10;;;;;;4987141;28;20034;-79
2023/06/17 10:23:04;;;;;;;4.95;4.55;;;22.70;79.00;;;;;;5002412;28;20042;-77
2023/06/17 10:25:30;;;;;;;5.03;4.72;;;22.70;78.80;;;;;;4999905;28;20230;-77
2023/06/17 10:27:56;;;;;;;5.03;4.72;;;22.70;78.80;;;;;;5003856;28;20048;-77
2023/06/17 10:30:28;;;;;;;6.00;4.60;;;22.70;78.80;;;;;;4997475;28;20559;-76
2023/06/17 10:33:01;;;;;;;4.90;4.60;;;22.70;78.30;;;;;;5014427;28;20104;-78
2023/06/17 10:35:37;;;;;;;4.97;4.53;;;22.80;78.30;;;;;;4655461;28;10001116;-77
2023/06/17 10:38:02;;;;;;;4.45;4.20;;;22.80;78.10;;;;;;4997355;28;20471;-76
2023/06/17 10:40:30;;;;;;;4.55;4.20;;;22.80;78.30;;;;;;4998395;28;20038;-77
2023/06/17 10:43:01;;;;;;;5.43;4.60;;;22.80;78.20;;;;;;4997024;28;20041;-78
2023/06/17 10:45:49;;;;;;;4.72;4.40;;;22.80;78.20;;;;;;4997990;28;20053;-77
2023/06/17 10:48:22;;;;;;;4.93;4.63;;;22.80;78.20;;;;;;4994148;28;20049;-78
2023/06/17 10:50:55;;;;;;;16.33;8.55;;;22.80;79.00;;;;;;4996181;28;20301;-78
2023/06/17 10:53:29;;;;;;;17.58;9.35;;;22.90;79.40;;;;;;4994682;28;20053;-77
2023/06/17 10:55:56;;;;;;;19.17;8.60;;;23.00;80.10;;;;;;4998863;28;20443;-76
2023/06/17 10:58:22;;;;;;;10.95;7.80;;;23.00;80.00;;;;;;4995017;28;20530;-78
2023/06/17 11:01:04;;;;;;;11.38;7.63;;;23.00;80.40;;;;;;4995743;28;20054;-77
2023/06/17 11:03:30;;;;;;;8.80;7.10;;;23.10;80.10;;;;;;4998395;28;20041;-78
2023/06/17 11:06:03;;;;;;;8.93;6.97;;;23.20;79.20;;;;;;5001923;28;20042;-77
2023/06/17 11:08:30;;;;;;;9.10;6.43;;;23.20;78.90;;;;;;4997975;28;20557;-76
2023/06/17 11:11:08;;;;;;;7.53;6.50;;;23.20;78.50;;;;;;4997088;28;20061;-76
2023/06/17 11:13:34;;;;;;;6.40;5.78;;;23.20;78.40;;;;;;4993582;28;20100;-77
2023/06/17 11:16:00;;;;;;;6.25;5.57;;;23.30;78.40;;;;;;5012507;28;20049;-77
2023/06/17 11:18:26;;;;;;;7.18;6.43;;;23.30;78.30;;;;;;4995824;28;20095;-78
2023/06/17 11:20:51;;;;;;;6.72;6.05;;;23.30;78.20;;;;;;5013525;28;20058;-78
2023/06/17 11:23:18;;;;;;;6.68;5.50;;;23.20;77.90;;;;;;5012169;28;20045;-74
2023/06/17 11:25:43;;;;;;;5.78;5.28;;;23.20;77.80;;;;;;4997877;28;20050;-74
2023/06/17 11:28:09;;;;;;;5.70;5.20;;;23.20;77.80;;;;;;4995772;28;20054;-74
2023/06/17 11:30:35;;;;;;;5.88;5.22;;;23.20;77.70;;;;;;4994954;28;20053;-74
2023/06/17 11:33:00;;;;;;;5.30;4.68;;;23.20;77.70;;;;;;4997469;28;20046;-74
2023/06/17 11:35:26;;;;;;;6.05;5.45;;;23.20;77.60;;;;;;4981057;28;20096;-74
2023/06/17 11:37:51;;;;;;;6.25;5.68;;;23.20;77.60;;;;;;4995271;28;20042;-74
2023/06/17 11:40:18;;;;;;;5.75;5.25;;;23.20;77.60;;;;;;4993538;28;20121;-74
2023/06/17 11:42:44;;;;;;;5.82;5.25;;;23.20;77.50;;;;;;4999011;28;20038;-74
2023/06/17 11:45:10;;;;;;;5.88;5.38;;;23.20;77.50;;;;;;4968468;28;20049;-74
2023/06/17 11:47:36;;;;;;;4.95;4.45;;;23.30;77.40;;;;;;4980747;28;20489;-75
2023/06/17 11:50:05;;;;;;;5.22;4.82;;;23.30;77.30;;;;;;4998012;28;20622;-75
2023/06/17 11:52:32;;;;;;;5.25;4.80;;;23.30;77.30;;;;;;4993964;28;20034;-75
2023/06/17 11:54:58;;;;;;;4.97;4.57;;;23.20;77.10;;;;;;4992293;28;20539;-74
2023/06/17 11:57:25;;;;;;;5.20;4.80;;;23.20;77.10;;;;;;4992066;28;20046;-73
2023/06/17 11:59:50;;;;;;;7.32;5.00;;;23.30;77.00;;;;;;4993174;28;20053;-74
2023/06/17 12:02:17;;;;;;;4.50;4.20;;;23.30;77.00;;;;;;4965836;28;20042;-74
2023/06/17 12:04:43;;;;;;;4.88;4.47;;;23.30;76.90;;;;;;4993136;28;20107;-74
2023/06/17 12:07:09;;;;;;;4.85;4.55;;;23.30;76.80;;;;;;4983479;28;20137;-75
2023/06/17 12:09:38;;;;;;;4.93;4.53;;;23.30;76.80;;;;;;4994084;28;20099;-75
2023/06/17 12:12:04;;;;;;;5.03;4.63;;;23.30;76.70;;;;;;4997236;28;20054;-74
2023/06/17 12:14:30;;;;;;;4.93;4.53;;;23.30;76.70;;;;;;5017336;28;20041;-73
2023/06/17 12:16:56;;;;;;;5.43;5.05;;;23.30;76.60;;;;;;4997867;28;20054;-72
2023/06/17 12:19:24;;;;;;;4.88;4.57;;;23.30;76.60;;;;;;4998931;28;20068;-72
2023/06/17 12:21:50;;;;;;;5.05;4.75;;;23.40;76.00;;;;;;4994760;28;20038;-73
2023/06/17 12:24:16;;;;;;;5.03;4.70;;;23.40;75.50;;;;;;4998672;28;20160;-73
2023/06/17 12:26:43;;;;;;;5.40;4.40;;;23.40;72.30;;;;;;5002794;28;20057;-73
2023/06/17 12:29:11;;;;;;;5.28;4.82;;;23.40;72.90;;;;;;5001513;28;20456;-73
2023/06/17 12:31:36;;;;;;;4.40;4.20;;;23.40;73.80;;;;;;5000463;28;20442;-73
2023/06/17 12:34:03;;;;;;;5.10;4.72;;;23.40;74.20;;;;;;5008051;28;20030;-73
2023/06/17 12:36:28;;;;;;;4.68;4.35;;;23.40;74.60;;;;;;4987933;28;20041;-73
2023/06/17 12:38:54;;;;;;;4.18;3.95;;;23.40;74.80;;;;;;4999960;28;20043;-73
2023/06/17 12:41:19;;;;;;;5.43;5.03;;;23.40;75.00;;;;;;5003088;28;20045;-73
2023/06/17 12:43:45;;;;;;;4.82;4.53;;;23.40;75.00;;;;;;5003370;28;20534;-73